createdAt,value
2023-05-22T00:02:23.120Z,0.30
2023-05-22T00:04:58.995Z,0.40
2023-05-22T00:07:32.198Z,0.60
2023-05-22T00:10:07.118Z,0.68
2023-05-22T00:12:40.744Z,0.40
2023-05-22T00:15:13.652Z,0.37
2023-05-22T00:17:48.112Z,0.15
2023-05-22T00:20:21.126Z,0.40
2023-05-22T00:22:54.689Z,0.55
2023-05-22T00:25:28.952Z,0.30
2023-05-22T00:28:01.937Z,0.40
2023-05-22T00:30:35.598Z,0.28
2023-05-22T00:33:08.243Z,0.55
2023-05-22T00:35:41.434Z,0.30
2023-05-22T00:38:29.607Z,0.50
2023-05-22T00:41:06.202Z,0.83
2023-05-22T00:43:39.802Z,0.38
2023-05-22T00:46:13.107Z,0.30
2023-05-22T00:48:46.022Z,0.60
2023-05-22T00:51:21.289Z,0.60
2023-05-22T00:53:54.788Z,0.53
2023-05-22T00:56:29.893Z,0.75
2023-05-22T00:59:02.949Z,0.30
2023-05-22T01:01:37.110Z,0.45
2023-05-22T01:04:12.318Z,0.47
2023-05-22T01:06:47.666Z,0.73
2023-05-22T01:09:20.902Z,0.32
2023-05-22T01:12:00.579Z,0.50
2023-05-22T01:14:41.757Z,0.73
2023-05-22T01:17:24.924Z,0.43
2023-05-22T01:20:08.075Z,1.00
2023-05-22T01:23:10.809Z,0.38
2023-05-22T01:26:13.226Z,0.43
2023-05-22T01:29:21.226Z,0.68
2023-05-22T01:31:58.500Z,0.47
2023-05-22T01:34:35.558Z,0.43
2023-05-22T01:37:11.758Z,0.30
2023-05-22T01:39:45.886Z,0.20
2023-05-22T01:42:19.892Z,0.40
2023-05-22T01:44:52.458Z,1.05
2023-05-22T01:47:27.247Z,0.40
2023-05-22T01:50:00.008Z,0.28
2023-05-22T01:52:41.689Z,0.28
2023-05-22T01:55:22.377Z,0.30
2023-05-22T01:58:00.400Z,0.30
2023-05-22T02:00:34.131Z,0.50
2023-05-22T02:03:14.089Z,0.60
2023-05-22T02:06:07.948Z,0.52
2023-05-22T02:08:42.838Z,0.30
2023-05-22T02:11:17.980Z,0.98
2023-05-22T02:13:51.606Z,0.53
2023-05-22T02:16:25.233Z,0.63
2023-05-22T02:19:08.523Z,0.40
2023-05-22T02:22:01.964Z,0.50
2023-05-22T02:24:37.027Z,0.22
2023-05-22T02:27:10.500Z,0.50
2023-05-22T02:29:43.452Z,0.32
2023-05-22T02:32:17.226Z,0.70
2023-05-22T02:34:53.386Z,0.70
2023-05-22T02:37:27.682Z,0.68
2023-05-22T02:40:01.188Z,0.20
2023-05-22T02:42:38.489Z,0.65
2023-05-22T02:45:11.790Z,0.63
2023-05-22T02:47:45.012Z,0.40
2023-05-22T02:50:19.189Z,0.82
2023-05-22T02:52:52.097Z,0.57
2023-05-22T02:55:24.656Z,0.57
2023-05-22T02:57:57.944Z,0.60
2023-05-22T03:00:31.427Z,0.85
2023-05-22T03:03:04.835Z,0.50
2023-05-22T03:05:42.415Z,0.67
2023-05-22T03:08:16.472Z,0.50
2023-05-22T03:10:49.567Z,0.30
2023-05-22T03:13:23.117Z,0.52
2023-05-22T03:15:55.803Z,0.88
2023-05-22T03:18:32.248Z,0.37
2023-05-22T03:21:06.712Z,0.68
2023-05-22T03:23:39.812Z,0.50
2023-05-22T03:26:12.571Z,0.70
2023-05-22T03:28:46.546Z,0.80
2023-05-22T03:31:19.400Z,1.23
2023-05-22T03:34:06.339Z,0.40
2023-05-22T03:36:42.202Z,1.00
2023-05-22T03:39:15.912Z,0.82
2023-05-22T03:41:57.457Z,0.90
2023-05-22T03:44:31.422Z,0.80
2023-05-22T03:47:04.638Z,0.73
2023-05-22T03:49:37.826Z,0.45
2023-05-22T03:52:12.946Z,0.80
2023-05-22T03:54:45.753Z,0.68
2023-05-22T03:57:20.847Z,1.13
2023-05-22T03:59:53.942Z,0.63
2023-05-22T04:02:26.885Z,1.02
2023-05-22T04:04:59.560Z,0.77
2023-05-22T04:07:33.969Z,0.65
2023-05-22T04:10:07.747Z,0.53
2023-05-22T04:12:40.620Z,0.85
2023-05-22T04:15:13.530Z,0.68
2023-05-22T04:17:47.464Z,0.65
2023-05-22T04:20:22.706Z,2.15
2023-05-22T04:22:58.056Z,1.03
2023-05-22T04:25:32.159Z,0.50
2023-05-22T04:28:04.921Z,0.77
2023-05-22T04:30:40.786Z,0.98
2023-05-22T04:33:14.105Z,0.85
2023-05-22T04:35:48.388Z,0.77
2023-05-22T04:38:26.701Z,0.70
2023-05-22T04:41:00.574Z,1.13
2023-05-22T04:43:34.350Z,0.50
2023-05-22T04:46:09.162Z,0.65
2023-05-22T04:48:43.350Z,1.07
2023-05-22T04:51:16.124Z,4.57
2023-05-22T04:53:52.186Z,0.95
2023-05-22T04:56:35.476Z,0.80
2023-05-22T04:59:10.595Z,1.02
2023-05-22T05:01:48.404Z,0.83
2023-05-22T05:04:21.051Z,0.75
2023-05-22T05:06:54.168Z,1.05
2023-05-22T05:09:28.185Z,0.82
2023-05-22T05:12:01.581Z,0.73
2023-05-22T05:14:35.313Z,0.80
2023-05-22T05:17:11.579Z,0.98
2023-05-22T05:19:46.307Z,0.80
2023-05-22T05:22:19.163Z,1.65
2023-05-22T05:24:53.493Z,1.10
2023-05-22T05:27:26.801Z,1.30
2023-05-22T05:30:02.500Z,1.38
2023-05-22T05:32:47.931Z,1.55
2023-05-22T05:35:37.037Z,1.50
2023-05-22T05:38:14.401Z,1.27
2023-05-22T05:40:50.535Z,1.13
2023-05-22T05:43:25.621Z,0.85
2023-05-22T05:46:04.412Z,1.70
2023-05-22T05:48:37.720Z,1.20
2023-05-22T05:51:11.641Z,1.42
2023-05-22T05:53:49.971Z,1.80
2023-05-22T05:56:29.487Z,1.83
2023-05-22T05:59:02.578Z,1.80
2023-05-22T06:01:46.546Z,1.98
2023-05-22T06:04:25.841Z,1.20
2023-05-22T06:07:02.392Z,1.90
2023-05-22T06:09:46.334Z,1.70
2023-05-22T06:12:32.428Z,1.65
2023-05-22T06:15:05.804Z,1.58
2023-05-22T06:17:39.251Z,1.85
2023-05-22T06:20:14.502Z,0.90
2023-05-22T06:22:53.999Z,1.73
2023-05-22T06:25:32.219Z,1.83
2023-05-22T06:28:15.619Z,1.60
2023-05-22T06:30:49.363Z,1.73
2023-05-22T06:33:25.355Z,2.47
2023-05-22T06:35:58.693Z,1.83
2023-05-22T06:38:32.140Z,2.30
2023-05-22T06:41:05.566Z,2.30
2023-05-22T06:43:41.777Z,1.83
2023-05-22T06:46:18.336Z,1.53
2023-05-22T06:49:04.711Z,1.33
2023-05-22T06:51:51.849Z,2.33
2023-05-22T06:54:29.095Z,2.15
2023-05-22T06:57:04.022Z,2.55
2023-05-22T06:59:39.241Z,2.33
2023-05-22T07:02:12.266Z,2.50
2023-05-22T07:05:17.006Z,1.90
2023-05-22T07:07:58.370Z,2.70
2023-05-22T07:10:41.104Z,3.17
2023-05-22T07:13:14.628Z,3.17
2023-05-22T07:15:48.984Z,2.95
2023-05-22T07:18:22.366Z,2.90
2023-05-22T07:20:55.552Z,3.22
2023-05-22T07:23:29.600Z,2.67
2023-05-22T07:26:02.595Z,2.73
2023-05-22T07:28:41.851Z,4.68
2023-05-22T07:31:20.630Z,2.75
2023-05-22T07:33:54.852Z,2.55
2023-05-22T07:36:32.282Z,3.90
2023-05-22T07:39:05.621Z,4.33
2023-05-22T07:41:50.522Z,3.28
2023-05-22T07:44:24.435Z,2.70
2023-05-22T07:46:59.707Z,3.28
2023-05-22T07:49:35.054Z,3.67
2023-05-22T07:52:08.472Z,3.13
2023-05-22T07:54:42.473Z,2.53
2023-05-22T07:57:17.828Z,2.40
2023-05-22T07:59:54.699Z,3.00
2023-05-22T08:02:31.760Z,2.65
2023-05-22T08:05:06.371Z,2.10
2023-05-22T08:07:39.323Z,2.38
2023-05-22T08:10:15.610Z,2.90
2023-05-22T08:12:49.154Z,2.90
2023-05-22T08:15:22.077Z,2.30
2023-05-22T08:17:56.453Z,2.80
2023-05-22T08:20:29.424Z,3.00
2023-05-22T08:23:02.723Z,3.08
2023-05-22T08:25:35.189Z,2.70
2023-05-22T08:28:08.821Z,3.08
2023-05-22T08:30:41.768Z,1.77
2023-05-22T08:33:16.869Z,2.55
2023-05-22T08:35:50.691Z,2.55
2023-05-22T08:38:23.536Z,3.35
2023-05-22T08:40:56.148Z,2.58
2023-05-22T08:43:29.441Z,3.33
2023-05-22T08:46:05.199Z,2.40
2023-05-22T08:48:39.820Z,2.95
2023-05-22T08:51:15.526Z,2.88
2023-05-22T08:53:52.617Z,3.03
2023-05-22T08:56:28.650Z,2.53
2023-05-22T08:59:03.304Z,2.90
2023-05-22T09:01:35.926Z,2.67
2023-05-22T09:04:13.415Z,3.30
2023-05-22T09:06:47.591Z,1.80
2023-05-22T09:09:20.591Z,2.50
2023-05-22T09:11:55.045Z,2.85
2023-05-22T09:14:28.379Z,2.17
2023-05-22T09:17:01.567Z,2.03
2023-05-22T09:19:35.971Z,2.03
2023-05-22T09:22:09.020Z,1.93
2023-05-22T09:24:43.191Z,2.47
2023-05-22T09:27:15.893Z,1.95
2023-05-22T09:29:49.933Z,2.20
2023-05-22T09:32:24.372Z,2.15
2023-05-22T09:35:05.091Z,2.00
2023-05-22T09:37:41.373Z,1.90
2023-05-22T09:40:14.726Z,1.52
2023-05-22T09:42:47.226Z,1.25
2023-05-22T09:45:25.679Z,1.45
2023-05-22T09:47:58.365Z,2.13
2023-05-22T09:50:33.347Z,1.92
2023-05-22T09:53:06.298Z,1.40
2023-05-22T09:55:40.279Z,2.00
2023-05-22T09:58:14.238Z,1.30
2023-05-22T10:00:49.111Z,1.57
2023-05-22T10:03:24.489Z,2.30
2023-05-22T10:06:00.997Z,1.27
2023-05-22T10:08:42.459Z,1.27
2023-05-22T10:11:15.596Z,1.23
2023-05-22T10:13:50.584Z,1.07
2023-05-22T10:16:26.064Z,1.35
2023-05-22T10:19:01.232Z,1.40
2023-05-22T10:21:37.151Z,1.20
2023-05-22T10:24:11.138Z,0.85
2023-05-22T10:26:44.747Z,1.07
2023-05-22T10:29:22.930Z,1.55
2023-05-22T10:32:05.711Z,1.35
2023-05-22T10:34:54.488Z,1.70
2023-05-22T10:37:42.332Z,1.52
2023-05-22T10:40:19.977Z,1.67
2023-05-22T10:42:52.540Z,1.00
2023-05-22T10:45:27.188Z,1.30
2023-05-22T10:48:04.892Z,1.40
2023-05-22T10:50:39.305Z,1.30
2023-05-22T10:53:22.970Z,1.07
2023-05-22T10:55:57.010Z,1.35
2023-05-22T10:58:32.189Z,1.17
2023-05-22T11:01:10.197Z,1.17
2023-05-22T11:03:56.791Z,1.25
2023-05-22T11:06:41.641Z,1.10
2023-05-22T11:09:20.820Z,1.23
2023-05-22T11:12:16.621Z,1.13
2023-05-22T11:14:51.943Z,1.40
2023-05-22T11:17:26.930Z,1.30
2023-05-22T11:20:05.566Z,1.37
2023-05-22T11:22:43.216Z,1.27
2023-05-22T11:25:19.275Z,1.42
2023-05-22T11:27:54.412Z,1.30
2023-05-22T11:30:28.935Z,1.33
2023-05-22T11:33:02.659Z,0.60
2023-05-22T11:35:38.811Z,1.55
2023-05-22T11:38:15.422Z,1.58
2023-05-22T11:40:52.439Z,1.65
2023-05-22T11:43:35.362Z,1.77
2023-05-22T11:46:09.455Z,1.50
2023-05-22T11:48:43.054Z,1.50
2023-05-22T11:51:22.574Z,4.68
2023-05-22T11:53:55.957Z,1.30
2023-05-22T11:56:30.268Z,0.90
2023-05-22T11:59:03.158Z,1.07
2023-05-22T12:01:36.465Z,1.15
2023-05-22T12:04:09.728Z,1.17
2023-05-22T12:06:42.827Z,1.60
2023-05-22T12:09:16.713Z,1.60
2023-05-22T12:11:51.162Z,1.17
2023-05-22T12:14:27.659Z,0.90
2023-05-22T12:17:00.802Z,0.90
2023-05-22T12:19:34.016Z,0.85
2023-05-22T12:22:07.448Z,1.08
2023-05-22T12:24:41.487Z,1.13
2023-05-22T12:27:16.220Z,1.23
2023-05-22T12:29:49.296Z,1.65
2023-05-22T12:32:22.794Z,1.10
2023-05-22T12:34:59.017Z,1.58
2023-05-22T12:37:34.236Z,1.17
2023-05-22T12:40:08.497Z,1.58
2023-05-22T12:42:42.536Z,1.38
2023-05-22T12:45:17.946Z,1.42
2023-05-22T12:47:56.463Z,1.05
2023-05-22T12:50:30.976Z,1.17
2023-05-22T12:53:03.862Z,1.17
2023-05-22T12:55:38.567Z,1.02
2023-05-22T12:58:12.884Z,1.58
2023-05-22T13:00:45.689Z,1.33
2023-05-22T13:03:18.814Z,1.13
2023-05-22T13:05:51.607Z,1.30
2023-05-22T13:08:25.714Z,1.25
2023-05-22T13:10:58.649Z,1.42
2023-05-22T13:13:33.560Z,1.05
2023-05-22T13:16:06.531Z,1.60
2023-05-22T13:18:39.835Z,1.30
2023-05-22T13:21:13.686Z,1.30
2023-05-22T13:23:46.924Z,1.23
2023-05-22T13:26:19.510Z,1.40
2023-05-22T13:28:54.155Z,1.50
2023-05-22T13:31:26.804Z,1.20
2023-05-22T13:34:01.605Z,1.48
2023-05-22T13:36:36.216Z,1.27
2023-05-22T13:39:09.621Z,1.60
2023-05-22T13:41:42.336Z,1.30
2023-05-22T13:44:16.621Z,1.48
2023-05-22T13:46:49.146Z,1.08
2023-05-22T13:49:22.168Z,0.80
2023-05-22T13:51:55.018Z,0.70
2023-05-22T13:54:28.187Z,1.70
2023-05-22T13:57:02.604Z,1.38
2023-05-22T13:59:37.414Z,0.82
2023-05-22T14:02:10.086Z,0.82
2023-05-22T14:04:43.059Z,0.57
2023-05-22T14:07:17.279Z,0.70
2023-05-22T14:09:50.685Z,0.65
2023-05-22T14:12:23.528Z,0.60
2023-05-22T14:14:58.102Z,1.35
2023-05-22T14:17:30.866Z,0.80
2023-05-22T14:20:04.957Z,0.90
2023-05-22T14:22:55.422Z,0.77
2023-05-22T14:25:29.547Z,1.38
2023-05-22T14:28:02.357Z,1.17
2023-05-22T14:30:37.230Z,0.70
2023-05-22T14:33:10.065Z,0.90
2023-05-22T14:35:43.457Z,0.70
2023-05-22T14:38:16.103Z,0.43
2023-05-22T14:40:49.557Z,0.80
2023-05-22T14:43:22.239Z,0.68
2023-05-22T14:45:58.240Z,0.50
2023-05-22T14:48:31.304Z,1.50
2023-05-22T14:51:04.888Z,1.70
2023-05-22T14:53:37.711Z,1.10
2023-05-22T14:56:10.514Z,1.05
2023-05-22T14:58:43.611Z,1.80
2023-05-22T15:01:17.923Z,0.68
2023-05-22T15:03:50.885Z,0.73
2023-05-22T15:06:23.673Z,1.00
2023-05-22T15:08:57.008Z,0.60
2023-05-22T15:11:29.802Z,0.70
2023-05-22T15:14:02.700Z,0.70
2023-05-22T15:16:36.925Z,1.40
2023-05-22T15:19:09.758Z,1.30
2023-05-22T15:21:42.560Z,1.80
2023-05-22T15:24:15.709Z,0.70
2023-05-22T15:26:48.684Z,1.80
2023-05-22T15:29:21.636Z,1.20
2023-05-22T15:31:56.315Z,1.08
2023-05-22T15:34:31.923Z,0.82
2023-05-22T15:37:05.297Z,0.80
2023-05-22T15:39:38.363Z,0.90
2023-05-22T15:42:11.510Z,0.70
2023-05-22T15:44:44.740Z,0.70
2023-05-22T15:47:19.136Z,1.33
2023-05-22T15:49:52.387Z,1.53
2023-05-22T15:52:25.031Z,2.00
2023-05-22T15:54:59.298Z,1.98
2023-05-22T15:57:32.150Z,1.23
2023-05-22T16:00:05.909Z,1.67
2023-05-22T16:02:42.438Z,1.30
2023-05-22T16:05:15.224Z,1.20
2023-05-22T16:07:48.313Z,1.20
2023-05-22T16:10:20.870Z,1.67
2023-05-22T16:12:54.067Z,1.48
2023-05-22T16:15:26.985Z,1.57
2023-05-22T16:18:01.187Z,1.65
2023-05-22T16:20:34.412Z,1.63
2023-05-22T16:23:07.810Z,1.48
2023-05-22T16:25:41.380Z,1.90
2023-05-22T16:28:14.493Z,1.30
2023-05-22T16:30:47.454Z,1.85
2023-05-22T16:33:21.642Z,1.13
2023-05-22T16:35:55.036Z,1.35
2023-05-22T16:38:27.587Z,1.58
2023-05-22T16:41:00.493Z,1.27
2023-05-22T16:43:33.569Z,1.70
2023-05-22T16:46:06.218Z,1.55
2023-05-22T16:48:40.919Z,3.10
2023-05-22T16:51:13.482Z,3.00
2023-05-22T16:53:46.990Z,2.70
2023-05-22T16:56:20.940Z,2.60
2023-05-22T16:58:54.220Z,1.85
2023-05-22T17:01:27.603Z,2.38
2023-05-22T17:04:02.016Z,1.60
2023-05-22T17:06:36.669Z,2.40
2023-05-22T17:09:10.244Z,2.20
2023-05-22T17:11:45.570Z,1.42
2023-05-22T17:14:18.096Z,1.95
2023-05-22T17:16:51.391Z,1.55
2023-05-22T17:19:25.927Z,2.17
2023-05-22T17:21:59.056Z,1.83
2023-05-22T17:24:31.907Z,1.92
2023-05-22T17:27:09.129Z,1.77
2023-05-22T17:29:41.804Z,2.17
2023-05-22T17:32:15.128Z,2.00
2023-05-22T17:34:59.926Z,2.25
2023-05-22T17:37:33.118Z,2.13
2023-05-22T17:40:07.169Z,1.83
2023-05-22T17:42:40.515Z,2.63
2023-05-22T17:45:13.618Z,3.10
2023-05-22T17:47:46.786Z,2.72
2023-05-22T17:50:21.210Z,3.10
2023-05-22T17:52:54.337Z,3.28
2023-05-22T17:55:26.947Z,2.88
2023-05-22T17:57:59.868Z,2.70
2023-05-22T18:00:32.746Z,2.55
2023-05-22T18:03:06.583Z,2.03
2023-05-22T18:05:41.447Z,1.85
2023-05-22T18:08:15.017Z,2.45
2023-05-22T18:10:48.571Z,2.30
2023-05-22T18:13:21.214Z,1.58
2023-05-22T18:15:55.312Z,1.73
2023-05-22T18:18:27.925Z,2.50
2023-05-22T18:21:06.230Z,2.53
2023-05-22T18:23:38.857Z,2.50
2023-05-22T18:26:12.080Z,2.47
2023-05-22T18:28:44.974Z,2.08
2023-05-22T18:31:17.630Z,2.47
2023-05-22T18:33:51.216Z,2.70
2023-05-22T18:36:26.107Z,1.87
2023-05-22T18:38:58.714Z,3.42
2023-05-22T18:41:32.263Z,2.38
2023-05-22T18:44:05.185Z,1.88
2023-05-22T18:46:38.143Z,1.83
2023-05-22T18:49:27.177Z,1.47
2023-05-22T18:52:02.917Z,1.80
2023-05-22T18:54:36.084Z,1.75
2023-05-22T18:57:09.343Z,1.33
2023-05-22T18:59:44.157Z,1.15
2023-05-22T19:02:17.097Z,1.03
2023-05-22T19:04:51.044Z,1.45
2023-05-22T19:07:25.433Z,1.30
2023-05-22T19:09:58.907Z,0.75
2023-05-22T19:12:32.013Z,1.10
2023-05-22T19:15:06.135Z,1.30
2023-05-22T19:17:39.675Z,1.10
2023-05-22T19:20:13.269Z,1.10
2023-05-22T19:22:47.629Z,1.67
2023-05-22T19:25:21.749Z,1.20
2023-05-22T19:27:55.290Z,1.10
2023-05-22T19:30:28.065Z,2.08
2023-05-22T19:33:01.224Z,1.00
2023-05-22T19:35:34.670Z,0.90
2023-05-22T19:38:09.736Z,1.33
2023-05-22T19:40:42.546Z,0.90
2023-05-22T19:43:16.020Z,1.25
2023-05-22T19:45:48.895Z,1.67
2023-05-22T19:48:22.622Z,0.82
2023-05-22T19:50:55.192Z,1.50
2023-05-22T19:53:31.636Z,0.90
2023-05-22T19:56:04.551Z,1.05
2023-05-22T19:58:37.440Z,1.17
2023-05-22T20:01:10.159Z,1.20
2023-05-22T20:03:43.519Z,0.93
2023-05-22T20:06:16.314Z,1.40
2023-05-22T20:08:50.633Z,1.70
2023-05-22T20:11:23.854Z,0.95
2023-05-22T20:13:57.060Z,1.00
2023-05-22T20:16:29.753Z,1.58
2023-05-22T20:19:04.429Z,0.97
2023-05-22T20:21:37.063Z,1.33
2023-05-22T20:24:17.626Z,1.00
2023-05-22T20:26:50.580Z,1.23
2023-05-22T20:29:23.927Z,1.67
2023-05-22T20:31:57.027Z,1.07
2023-05-22T20:34:30.319Z,1.63
2023-05-22T20:37:04.134Z,0.93
2023-05-22T20:39:38.797Z,1.25
2023-05-22T20:42:13.254Z,1.20
2023-05-22T20:44:46.739Z,1.23
2023-05-22T20:47:19.668Z,1.30
2023-05-22T20:49:52.621Z,1.25
2023-05-22T20:52:26.183Z,1.20
2023-05-22T20:55:00.338Z,1.23
2023-05-22T20:57:33.488Z,1.20
2023-05-22T21:00:11.312Z,1.08
2023-05-22T21:02:44.675Z,0.90
2023-05-22T21:05:17.512Z,0.85
2023-05-22T21:07:50.678Z,1.27
2023-05-22T21:10:24.803Z,0.93
2023-05-22T21:12:58.135Z,1.10
2023-05-22T21:15:30.731Z,1.33
2023-05-22T21:18:04.138Z,0.70
2023-05-22T21:20:36.695Z,1.15
2023-05-22T21:23:10.046Z,1.00
2023-05-22T21:25:44.053Z,1.45
2023-05-22T21:28:17.257Z,1.00
2023-05-22T21:30:50.272Z,0.45
2023-05-22T21:33:23.151Z,0.85
2023-05-22T21:35:56.201Z,2.07
2023-05-22T21:38:28.874Z,0.77
2023-05-22T21:41:03.247Z,0.88
2023-05-22T21:43:36.090Z,1.20
2023-05-22T21:46:09.195Z,1.25
2023-05-22T21:48:42.432Z,1.43
2023-05-22T21:51:15.623Z,0.80
2023-05-22T21:53:48.280Z,1.35
2023-05-22T21:56:22.386Z,1.30
2023-05-22T21:58:55.728Z,0.90
2023-05-22T22:01:28.711Z,0.97
2023-05-22T22:04:01.571Z,1.00
2023-05-22T22:06:34.239Z,1.30
2023-05-22T22:09:07.743Z,1.30
2023-05-22T22:11:41.973Z,1.30
2023-05-22T22:14:14.776Z,0.83
2023-05-22T22:16:48.032Z,1.48
2023-05-22T22:19:22.838Z,1.10
2023-05-22T22:21:55.551Z,0.90
2023-05-22T22:24:28.189Z,1.08
2023-05-22T22:27:02.629Z,1.50
2023-05-22T22:29:36.133Z,1.17
2023-05-22T22:32:09.255Z,1.33
2023-05-22T22:34:42.282Z,1.38
2023-05-22T22:37:15.302Z,1.30
2023-05-22T22:39:48.535Z,1.03
2023-05-22T22:42:23.057Z,1.10
2023-05-22T22:44:55.626Z,1.25
2023-05-22T22:47:29.119Z,1.73
2023-05-22T22:50:02.048Z,1.33
2023-05-22T22:52:38.315Z,1.07
2023-05-22T22:55:11.360Z,1.73
2023-05-22T22:57:50.201Z,1.20
2023-05-22T23:00:23.772Z,1.10
2023-05-22T23:02:57.018Z,1.60
2023-05-22T23:05:29.606Z,1.80
2023-05-22T23:08:02.549Z,1.13
2023-05-22T23:10:35.689Z,1.27
2023-05-22T23:13:10.191Z,1.30
2023-05-22T23:15:43.356Z,0.80
2023-05-22T23:18:16.715Z,2.13
2023-05-22T23:20:49.261Z,1.40
2023-05-22T23:23:22.513Z,1.33
2023-05-22T23:25:57.313Z,1.67
2023-05-22T23:28:33.469Z,1.50
2023-05-22T23:31:06.337Z,1.80
2023-05-22T23:33:39.201Z,2.08
2023-05-22T23:36:12.031Z,1.15
2023-05-22T23:38:46.860Z,1.85
2023-05-22T23:41:19.509Z,1.52
2023-05-22T23:43:53.874Z,1.93
2023-05-22T23:46:26.724Z,1.40
2023-05-22T23:49:00.079Z,1.75
2023-05-22T23:51:33.182Z,1.48
2023-05-22T23:54:06.567Z,1.88
2023-05-22T23:56:39.723Z,1.47
2023-05-22T23:59:14.127Z,1.90
